createdAt,value
2023-02-19T00:00:49.021Z,10.92
2023-02-19T00:01:50.511Z,10.86
2023-02-19T00:02:51.153Z,10.9
2023-02-19T00:03:52.181Z,10.95
2023-02-19T00:04:52.856Z,10.86
2023-02-19T00:05:53.515Z,10.89
2023-02-19T00:06:54.436Z,10.86
2023-02-19T00:07:54.644Z,10.87
2023-02-19T00:08:54.757Z,10.8
2023-02-19T00:09:54.796Z,10.8
2023-02-19T00:10:56.004Z,10.76
2023-02-19T00:11:56.619Z,10.79
2023-02-19T00:12:57.813Z,10.77
2023-02-19T00:13:58.032Z,10.79
2023-02-19T00:14:59.248Z,10.72
2023-02-19T00:15:59.624Z,10.75
2023-02-19T00:16:59.910Z,10.75
2023-02-19T00:18:00.842Z,10.72
2023-02-19T00:19:01.761Z,10.68
2023-02-19T00:20:02.491Z,10.72
2023-02-19T00:21:03.110Z,10.68
2023-02-19T00:22:03.833Z,10.75
2023-02-19T00:23:04.034Z,10.77
2023-02-19T00:24:04.368Z,10.72
2023-02-19T00:25:05.330Z,10.72
2023-02-19T00:26:21.652Z,10.61
2023-02-19T00:27:05.867Z,10.69
2023-02-19T00:28:06.357Z,10.71
2023-02-19T00:29:06.282Z,10.67
2023-02-19T00:30:07.727Z,10.77
2023-02-19T00:31:07.990Z,10.72
2023-02-19T00:32:08.301Z,10.72
2023-02-19T00:33:08.779Z,10.75
2023-02-19T00:34:09.997Z,10.76
2023-02-19T00:35:11.013Z,10.76
2023-02-19T00:36:10.992Z,10.8
2023-02-19T00:37:12.208Z,10.75
2023-02-19T00:38:12.907Z,10.8
2023-02-19T00:39:13.126Z,10.79
2023-02-19T00:40:13.864Z,10.79
2023-02-19T00:41:14.498Z,10.75
2023-02-19T00:42:15.696Z,10.77
2023-02-19T00:43:16.651Z,10.77
2023-02-19T00:44:17.264Z,10.79
2023-02-19T00:45:17.191Z,10.79
2023-02-19T00:46:18.001Z,10.72
2023-02-19T00:47:18.369Z,10.79
2023-02-19T00:48:18.856Z,10.76
2023-02-19T00:49:18.811Z,10.76
2023-02-19T00:50:19.952Z,10.79
2023-02-19T00:51:20.188Z,10.75
2023-02-19T00:52:20.842Z,10.79
2023-02-19T00:53:21.035Z,10.8
2023-02-19T00:54:21.670Z,10.84
2023-02-19T00:55:21.898Z,10.77
2023-02-19T00:56:22.006Z,10.8
2023-02-19T00:57:22.570Z,10.77
2023-02-19T00:58:22.918Z,10.76
2023-02-19T00:59:24.143Z,10.76
2023-02-19T01:00:24.837Z,10.72
2023-02-19T01:01:25.032Z,10.77
2023-02-19T01:02:25.129Z,10.68
2023-02-19T01:03:26.339Z,10.61
2023-02-19T01:04:27.128Z,10.69
2023-02-19T01:05:27.999Z,10.61
2023-02-19T01:06:28.563Z,10.68
2023-02-19T01:07:28.475Z,10.65
2023-02-19T01:08:29.381Z,10.58
2023-02-19T01:09:29.571Z,10.65
2023-02-19T01:10:30.024Z,10.62
2023-02-19T01:11:30.946Z,10.57
2023-02-19T01:12:32.144Z,10.67
2023-02-19T01:13:32.107Z,10.61
2023-02-19T01:14:33.020Z,10.65
2023-02-19T01:15:33.501Z,10.68
2023-02-19T01:16:33.634Z,10.57
2023-02-19T01:17:33.827Z,10.68
2023-02-19T01:18:34.467Z,10.69
2023-02-19T01:19:35.382Z,10.62
2023-02-19T01:20:36.027Z,10.67
2023-02-19T01:21:36.617Z,10.67
2023-02-19T01:22:36.816Z,10.65
2023-02-19T01:23:37.745Z,10.58
2023-02-19T01:24:38.391Z,10.69
2023-02-19T01:25:39.575Z,10.77
2023-02-19T01:26:40.496Z,10.75
2023-02-19T01:27:41.727Z,10.72
2023-02-19T01:28:41.991Z,10.67
2023-02-19T01:29:42.617Z,10.65
2023-02-19T01:30:42.996Z,10.68
2023-02-19T01:31:44.656Z,10.69
2023-02-19T01:32:44.870Z,10.72
2023-02-19T01:33:46.082Z,10.71
2023-02-19T01:34:46.709Z,10.76
2023-02-19T01:35:47.683Z,10.79
2023-02-19T01:36:47.935Z,10.8
2023-02-19T01:37:48.422Z,10.79
2023-02-19T01:38:48.389Z,10.75
2023-02-19T01:39:49.317Z,10.79
2023-02-19T01:40:49.636Z,10.68
2023-02-19T01:41:50.125Z,10.67
2023-02-19T01:42:50.620Z,10.68
2023-02-19T01:43:50.539Z,10.71
2023-02-19T01:44:51.220Z,10.79
2023-02-19T01:45:51.141Z,10.76
2023-02-19T01:46:52.210Z,10.69
2023-02-19T01:47:52.854Z,10.69
2023-02-19T01:48:53.337Z,10.71
2023-02-19T01:49:53.824Z,10.75
2023-02-19T01:50:54.227Z,10.68
2023-02-19T01:51:54.750Z,10.69
2023-02-19T01:52:55.681Z,10.62
2023-02-19T01:53:55.881Z,10.71
2023-02-19T01:54:56.575Z,10.67
2023-02-19T01:55:57.527Z,10.55
2023-02-19T01:56:58.781Z,10.57
2023-02-19T01:57:59.267Z,10.53
2023-02-19T01:58:59.197Z,10.53
2023-02-19T01:59:59.699Z,10.43
2023-02-19T02:01:00.730Z,10.43
2023-02-19T02:02:01.481Z,10.58
2023-02-19T02:03:01.835Z,10.53
2023-02-19T02:04:02.767Z,10.58
2023-02-19T02:05:02.956Z,10.49
2023-02-19T02:06:03.960Z,10.48
2023-02-19T02:07:04.488Z,10.48
2023-02-19T02:08:04.686Z,10.53
2023-02-19T02:09:05.173Z,10.49
2023-02-19T02:10:05.385Z,10.49
2023-02-19T02:11:05.718Z,10.55
2023-02-19T02:12:06.991Z,10.57
2023-02-19T02:13:07.191Z,10.49
2023-02-19T02:14:07.397Z,10.51
2023-02-19T02:15:08.352Z,10.53
2023-02-19T02:16:09.000Z,10.53
2023-02-19T02:17:08.768Z,10.59
2023-02-19T02:18:09.259Z,10.57
2023-02-19T02:19:09.501Z,10.53
2023-02-19T02:20:09.705Z,10.48
2023-02-19T02:21:10.458Z,10.64
2023-02-19T02:22:09.898Z,10.65
2023-02-19T02:23:10.547Z,10.59
2023-02-19T02:24:11.177Z,10.55
2023-02-19T02:25:11.686Z,10.53
2023-02-19T02:26:11.639Z,10.53
2023-02-19T02:27:12.298Z,10.49
2023-02-19T02:28:13.221Z,10.39
2023-02-19T02:29:13.446Z,10.39
2023-02-19T02:30:13.754Z,10.21
2023-02-19T02:31:15.025Z,10.24
2023-02-19T02:32:14.894Z,10.15
2023-02-19T02:33:15.154Z,10.24
2023-02-19T02:34:15.648Z,10.27
2023-02-19T02:35:15.988Z,10.25
2023-02-19T02:36:17.531Z,10.23
2023-02-19T02:37:18.062Z,10.17
2023-02-19T02:38:17.985Z,10.12
2023-02-19T02:39:19.193Z,10.02
2023-02-19T02:40:19.418Z,10.05
2023-02-19T02:41:19.712Z,10.03
2023-02-19T02:42:19.916Z,10
2023-02-19T02:43:20.648Z,9.91
2023-02-19T02:44:21.408Z,10
2023-02-19T02:45:21.607Z,9.87
2023-02-19T02:46:22.578Z,9.92
2023-02-19T02:47:22.518Z,9.99
2023-02-19T02:48:22.879Z,9.88
2023-02-19T02:49:24.244Z,9.84
2023-02-19T02:50:25.174Z,9.8
2023-02-19T02:51:26.278Z,9.73
2023-02-19T02:52:26.296Z,9.72
2023-02-19T02:53:27.509Z,9.73
2023-02-19T02:54:27.729Z,9.69
2023-02-19T02:55:28.655Z,9.69
2023-02-19T02:56:29.032Z,9.64
2023-02-19T02:57:30.267Z,9.63
2023-02-19T02:58:30.216Z,9.62
2023-02-19T02:59:30.856Z,9.62
2023-02-19T03:00:31.070Z,9.51
2023-02-19T03:01:31.504Z,9.49
2023-02-19T03:02:31.356Z,9.58
2023-02-19T03:03:32.040Z,9.62
2023-02-19T03:04:32.968Z,9.54
2023-02-19T03:05:33.910Z,9.54
2023-02-19T03:06:33.822Z,9.52
2023-02-19T03:07:34.759Z,9.55
2023-02-19T03:08:34.691Z,9.51
2023-02-19T03:09:34.887Z,9.44
2023-02-19T03:10:35.890Z,9.48
2023-02-19T03:11:36.612Z,9.47
2023-02-19T03:12:36.826Z,9.48
2023-02-19T03:13:37.021Z,9.44
2023-02-19T03:14:38.311Z,9.48
2023-02-19T03:15:38.667Z,9.33
2023-02-19T03:16:43.264Z,9.45
2023-02-19T03:17:40.547Z,9.45
2023-02-19T03:18:40.784Z,9.34
2023-02-19T03:19:40.713Z,9.39
2023-02-19T03:20:40.912Z,9.34
2023-02-19T03:21:41.923Z,9.39
2023-02-19T03:22:42.417Z,9.3
2023-02-19T03:23:42.630Z,9.29
2023-02-19T03:24:43.261Z,9.19
2023-02-19T03:25:43.797Z,9.22
2023-02-19T03:26:43.451Z,9.21
2023-02-19T03:27:44.261Z,9.12
2023-02-19T03:28:45.167Z,8.97
2023-02-19T03:29:46.384Z,8.97
2023-02-19T03:30:46.578Z,9
2023-02-19T03:31:47.817Z,8.86
2023-02-19T03:32:48.397Z,8.82
2023-02-19T03:33:49.305Z,8.71
2023-02-19T03:34:50.213Z,8.61
2023-02-19T03:35:51.428Z,8.75
2023-02-19T03:36:51.660Z,8.63
2023-02-19T03:37:52.582Z,8.61
2023-02-19T03:38:52.501Z,8.6
2023-02-19T03:39:54.005Z,8.6
2023-02-19T03:40:54.949Z,8.46
2023-02-19T03:41:54.948Z,8.5
2023-02-19T03:42:56.710Z,8.36
2023-02-19T03:43:55.635Z,8.35
2023-02-19T03:44:56.864Z,8.36
2023-02-19T03:45:57.892Z,8.39
2023-02-19T03:46:58.464Z,8.39
2023-02-19T03:47:58.669Z,8.31
2023-02-19T03:48:58.885Z,8.27
2023-02-19T03:49:59.092Z,8.36
2023-02-19T03:50:59.734Z,8.35
2023-02-19T03:51:59.908Z,8.39
2023-02-19T03:53:01.120Z,8.31
2023-02-19T03:54:01.314Z,8.41
2023-02-19T03:55:01.526Z,8.45
2023-02-19T03:56:02.152Z,8.35
2023-02-19T03:57:03.355Z,8.35
2023-02-19T03:58:03.276Z,8.41
2023-02-19T03:59:03.899Z,8.38
2023-02-19T04:00:05.125Z,8.41
2023-02-19T04:01:05.789Z,8.36
2023-02-19T04:02:06.640Z,8.38
2023-02-19T04:03:06.881Z,8.42
2023-02-19T04:04:06.826Z,8.42
2023-02-19T04:05:07.854Z,8.41
2023-02-19T04:06:09.034Z,8.56
2023-02-19T04:07:09.234Z,8.57
2023-02-19T04:08:09.172Z,8.49
2023-02-19T04:09:09.812Z,8.53
2023-02-19T04:10:10.800Z,8.6
2023-02-19T04:11:11.458Z,8.61
2023-02-19T04:12:11.577Z,8.53
2023-02-19T04:13:12.146Z,8.64
2023-02-19T04:14:12.374Z,8.49
2023-02-19T04:15:12.571Z,8.61
2023-02-19T04:16:13.131Z,8.52
2023-02-19T04:17:13.280Z,8.6
2023-02-19T04:18:13.907Z,8.52
2023-02-19T04:19:15.391Z,8.61
2023-02-19T04:20:15.335Z,8.53
2023-02-19T04:21:16.176Z,8.54
2023-02-19T04:22:17.170Z,8.5
2023-02-19T04:23:17.412Z,8.56
2023-02-19T04:24:17.625Z,8.5
2023-02-19T04:25:18.255Z,8.61
2023-02-19T04:26:18.786Z,8.6
2023-02-19T04:27:18.703Z,8.5
2023-02-19T04:28:19.621Z,8.54
2023-02-19T04:29:20.251Z,8.54
2023-02-19T04:30:21.267Z,8.54
2023-02-19T04:31:21.672Z,8.57
2023-02-19T04:32:22.828Z,8.61
2023-02-19T04:33:22.742Z,8.68
2023-02-19T04:34:23.101Z,8.68
2023-02-19T04:35:23.727Z,8.69
2023-02-19T04:36:24.924Z,8.74
2023-02-19T04:37:25.427Z,8.79
2023-02-19T04:38:25.638Z,8.77
2023-02-19T04:39:26.284Z,8.78
2023-02-19T04:40:27.478Z,8.75
2023-02-19T04:41:27.393Z,8.72
2023-02-19T04:42:28.696Z,8.72
2023-02-19T04:43:28.914Z,8.79
2023-02-19T04:44:29.433Z,8.72
2023-02-19T04:45:30.471Z,8.63
2023-02-19T04:46:30.853Z,8.63
2023-02-19T04:47:30.779Z,8.68
2023-02-19T04:48:31.268Z,8.63
2023-02-19T04:49:31.194Z,8.69
2023-02-19T04:50:32.424Z,8.75
2023-02-19T04:51:33.051Z,8.71
2023-02-19T04:52:33.774Z,8.79
2023-02-19T04:53:34.989Z,8.71
2023-02-19T04:54:35.342Z,8.75
2023-02-19T04:55:36.272Z,8.78
2023-02-19T04:56:36.758Z,8.77
2023-02-19T04:57:37.350Z,8.82
2023-02-19T04:58:38.008Z,8.78
2023-02-19T04:59:38.932Z,8.99
2023-02-19T05:00:39.567Z,9
2023-02-19T05:01:40.882Z,9.09
2023-02-19T05:02:41.397Z,9.02
2023-02-19T05:03:42.328Z,9.09
2023-02-19T05:04:43.464Z,9.24
2023-02-19T05:05:44.100Z,9.3
2023-02-19T05:06:45.304Z,9.33
2023-02-19T05:07:45.516Z,9.36
2023-02-19T05:08:46.420Z,9.4
2023-02-19T05:09:46.914Z,9.42
2023-02-19T05:10:47.124Z,9.47
2023-02-19T05:11:48.341Z,9.45
2023-02-19T05:12:49.083Z,9.44
2023-02-19T05:13:49.569Z,9.45
2023-02-19T05:14:50.206Z,9.44
2023-02-19T05:15:51.240Z,9.48
2023-02-19T05:16:51.584Z,9.54
2023-02-19T05:17:52.086Z,9.52
2023-02-19T05:18:52.008Z,9.52
2023-02-19T05:19:52.639Z,9.54
2023-02-19T05:20:52.972Z,9.54
2023-02-19T05:21:54.206Z,9.54
2023-02-19T05:22:55.276Z,9.52
2023-02-19T05:23:55.773Z,9.55
2023-02-19T05:24:55.678Z,9.51
2023-02-19T05:25:56.702Z,9.49
2023-02-19T05:26:57.334Z,9.39
2023-02-19T05:27:58.250Z,9.45
2023-02-19T05:28:59.447Z,9.34
2023-02-19T05:30:00.237Z,9.45
2023-02-19T05:31:00.456Z,9.39
2023-02-19T05:32:00.758Z,9.44
2023-02-19T05:33:01.189Z,9.52
2023-02-19T05:34:00.867Z,9.52
2023-02-19T05:35:01.800Z,9.7
2023-02-19T05:36:03.008Z,9.72
2023-02-19T05:37:03.262Z,9.8
2023-02-19T05:38:03.182Z,9.81
2023-02-19T05:39:03.380Z,9.82
2023-02-19T05:40:04.575Z,9.88
2023-02-19T05:41:04.805Z,10.03
2023-02-19T05:42:05.225Z,10
2023-02-19T05:43:05.968Z,10.05
2023-02-19T05:44:06.882Z,10.06
2023-02-19T05:45:07.798Z,10.07
2023-02-19T05:46:08.137Z,10.15
2023-02-19T05:47:07.883Z,10.17
2023-02-19T05:48:09.102Z,10.21
2023-02-19T05:49:10.036Z,10.3
2023-02-19T05:50:10.963Z,10.23
2023-02-19T05:51:11.570Z,10.3
2023-02-19T05:52:11.321Z,10.24
2023-02-19T05:53:11.762Z,10.27
2023-02-19T05:54:12.393Z,10.34
2023-02-19T05:55:13.036Z,10.39
2023-02-19T05:56:13.681Z,10.41
2023-02-19T05:57:14.326Z,10.45
2023-02-19T05:58:15.251Z,10.34
2023-02-19T05:59:15.895Z,10.45
2023-02-19T06:00:17.112Z,10.38
2023-02-19T06:01:18.030Z,10.45
2023-02-19T06:02:17.958Z,10.41
2023-02-19T06:03:18.240Z,10.49
2023-02-19T06:04:18.908Z,10.48
2023-02-19T06:05:18.870Z,10.41
2023-02-19T06:06:19.517Z,10.43
2023-02-19T06:07:21.032Z,10.49
2023-02-19T06:08:20.663Z,10.58
2023-02-19T06:09:21.576Z,10.55
2023-02-19T06:10:22.209Z,10.53
2023-02-19T06:11:23.137Z,10.53
2023-02-19T06:12:24.055Z,10.55
2023-02-19T06:13:25.353Z,10.46
2023-02-19T06:14:25.849Z,10.61
2023-02-19T06:15:26.531Z,10.61
2023-02-19T06:16:27.102Z,10.58
2023-02-19T06:17:27.629Z,10.62
2023-02-19T06:18:27.878Z,10.65
2023-02-19T06:19:27.819Z,10.64
2023-02-19T06:20:30.441Z,10.69
2023-02-19T06:21:29.935Z,10.62
2023-02-19T06:22:30.141Z,10.68
2023-02-19T06:23:30.305Z,10.69
2023-02-19T06:24:31.021Z,10.75
2023-02-19T06:25:31.241Z,10.79
2023-02-19T06:26:31.751Z,10.86
2023-02-19T06:27:31.670Z,10.84
2023-02-19T06:28:32.885Z,10.86
2023-02-19T06:29:32.933Z,10.8
2023-02-19T06:30:33.429Z,10.83
2023-02-19T06:31:34.145Z,10.87
2023-02-19T06:32:34.945Z,10.82
2023-02-19T06:33:35.239Z,10.87
2023-02-19T06:34:36.217Z,10.9
2023-02-19T06:35:36.436Z,10.97
2023-02-19T06:36:36.659Z,10.86
2023-02-19T06:37:37.005Z,10.84
2023-02-19T06:38:38.209Z,10.9
2023-02-19T06:39:38.144Z,10.9
2023-02-19T06:40:39.339Z,10.97
2023-02-19T06:41:39.979Z,11
2023-02-19T06:42:40.385Z,11
2023-02-19T06:43:41.166Z,11.02
2023-02-19T06:44:42.029Z,10.97
2023-02-19T06:45:42.656Z,11.02
2023-02-19T06:46:43.767Z,11.07
2023-02-19T06:47:44.887Z,11.1
2023-02-19T06:48:44.813Z,11.15
2023-02-19T06:49:45.038Z,11.19
2023-02-19T06:50:46.282Z,11.15
2023-02-19T06:51:47.203Z,11.15
2023-02-19T06:52:47.398Z,11.19
2023-02-19T06:53:48.410Z,11.16
2023-02-19T06:54:49.075Z,11.23
2023-02-19T06:55:49.573Z,11.27
2023-02-19T06:56:52.670Z,11.27
2023-02-19T06:57:50.343Z,11.37
2023-02-19T06:58:50.966Z,11.33
2023-02-19T06:59:52.188Z,11.34
2023-02-19T07:00:52.651Z,11.33
2023-02-19T07:01:52.454Z,11.31
2023-02-19T07:02:53.647Z,11.34
2023-02-19T07:03:54.348Z,11.37
2023-02-19T07:04:54.774Z,11.41
2023-02-19T07:05:56.003Z,11.44
2023-02-19T07:06:56.193Z,11.45
2023-02-19T07:07:56.412Z,11.45
2023-02-19T07:08:56.643Z,11.56
2023-02-19T07:09:57.584Z,11.52
2023-02-19T07:10:57.526Z,11.53
2023-02-19T07:11:58.156Z,11.56
2023-02-19T07:12:59.356Z,11.58
2023-02-19T07:13:59.684Z,11.6
2023-02-19T07:14:59.891Z,11.56
2023-02-19T07:15:59.683Z,11.6
2023-02-19T07:17:00.253Z,11.56
2023-02-19T07:18:01.183Z,11.63
2023-02-19T07:19:01.136Z,11.65
2023-02-19T07:20:02.376Z,11.65
2023-02-19T07:21:02.579Z,11.67
2023-02-19T07:22:03.392Z,11.67
2023-02-19T07:23:03.047Z,11.65
2023-02-19T07:24:04.035Z,11.63
2023-02-19T07:25:03.954Z,11.62
2023-02-19T07:26:05.243Z,11.71
2023-02-19T07:27:05.170Z,11.73
2023-02-19T07:28:06.099Z,11.73
2023-02-19T07:29:06.032Z,11.68
2023-02-19T07:30:07.328Z,11.7
2023-02-19T07:31:07.654Z,11.77
2023-02-19T07:32:08.587Z,11.71
2023-02-19T07:33:10.837Z,11.68
2023-02-19T07:34:09.580Z,11.77
2023-02-19T07:35:10.496Z,11.8
2023-02-19T07:36:10.695Z,11.85
2023-02-19T07:37:11.376Z,11.81
2023-02-19T07:38:12.290Z,11.78
2023-02-19T07:39:15.799Z,11.81
2023-02-19T07:40:14.008Z,11.88
2023-02-19T07:41:15.625Z,11.85
2023-02-19T07:42:16.148Z,11.89
2023-02-19T07:43:16.361Z,11.95
2023-02-19T07:44:16.656Z,11.89
2023-02-19T07:45:16.607Z,11.85
2023-02-19T07:46:17.850Z,11.83
2023-02-19T07:47:18.767Z,11.8
2023-02-19T07:48:19.260Z,11.81
2023-02-19T07:49:19.480Z,11.78
2023-02-19T07:50:20.437Z,11.77
2023-02-19T07:51:20.732Z,11.73
2023-02-19T07:52:21.655Z,11.77
2023-02-19T07:53:21.582Z,11.71
2023-02-19T07:54:22.356Z,11.74
2023-02-19T07:55:22.592Z,11.67
2023-02-19T07:56:22.971Z,11.56
2023-02-19T07:57:23.620Z,11.53
2023-02-19T07:58:24.554Z,11.52
2023-02-19T07:59:24.839Z,11.41
2023-02-19T08:00:25.056Z,11.34
2023-02-19T08:01:26.070Z,11.43
2023-02-19T08:02:26.099Z,11.35
2023-02-19T08:03:26.766Z,11.34
2023-02-19T08:04:27.321Z,11.25
2023-02-19T08:05:27.959Z,11.26
2023-02-19T08:06:29.184Z,11.19
2023-02-19T08:07:29.115Z,11.2
2023-02-19T08:08:30.037Z,11.18
2023-02-19T08:09:30.401Z,11.26
2023-02-19T08:10:31.620Z,11.13
2023-02-19T08:11:32.205Z,11.18
2023-02-19T08:12:32.168Z,11.15
2023-02-19T08:13:32.846Z,11.1
2023-02-19T08:14:33.845Z,11.05
2023-02-19T08:15:34.499Z,11.12
2023-02-19T08:16:48.987Z,11.08
2023-02-19T08:17:35.697Z,11
2023-02-19T08:18:35.626Z,11.07
2023-02-19T08:19:35.835Z,11.08
2023-02-19T08:20:35.763Z,10.97
2023-02-19T08:21:39.081Z,10.92
2023-02-19T08:22:37.700Z,11.02
2023-02-19T08:23:38.917Z,11.05
2023-02-19T08:24:39.944Z,11.05
2023-02-19T08:25:40.162Z,11.02
2023-02-19T08:26:41.379Z,11.02
2023-02-19T08:27:41.352Z,11.02
2023-02-19T08:28:42.852Z,10.97
2023-02-19T08:29:42.790Z,11.02
2023-02-19T08:30:43.888Z,11
2023-02-19T08:31:44.171Z,11
2023-02-19T08:32:44.957Z,11.07
2023-02-19T08:33:45.168Z,10.95
2023-02-19T08:34:45.608Z,11.04
2023-02-19T08:35:46.258Z,10.98
2023-02-19T08:36:46.489Z,10.89
2023-02-19T08:37:46.976Z,10.86
2023-02-19T08:38:47.922Z,10.9
2023-02-19T08:39:48.547Z,10.86
2023-02-19T08:40:49.752Z,10.89
2023-02-19T08:41:50.142Z,10.79
2023-02-19T08:42:51.518Z,10.77
2023-02-19T08:43:52.024Z,10.77
2023-02-19T08:44:52.346Z,10.76
2023-02-19T08:45:53.351Z,10.71
2023-02-19T08:46:53.422Z,10.71
2023-02-19T08:47:53.743Z,10.72
2023-02-19T08:48:53.730Z,10.57
2023-02-19T08:49:54.233Z,10.61
2023-02-19T08:50:54.427Z,10.67
2023-02-19T08:51:54.661Z,10.65
2023-02-19T08:52:54.871Z,10.64
2023-02-19T08:53:55.787Z,10.62
2023-02-19T08:54:56.494Z,10.64
2023-02-19T08:55:56.539Z,10.53
2023-02-19T08:56:56.753Z,10.48
2023-02-19T08:57:57.698Z,10.46
2023-02-19T08:58:57.929Z,10.51
2023-02-19T08:59:58.142Z,10.45
2023-02-19T09:00:59.146Z,10.43
2023-02-19T09:02:00.094Z,10.45
2023-02-19T09:03:00.171Z,10.34
2023-02-19T09:04:00.435Z,10.39
2023-02-19T09:05:00.260Z,10.23
2023-02-19T09:06:01.489Z,10.27
2023-02-19T09:07:02.302Z,10.25
2023-02-19T09:08:02.578Z,10.33
2023-02-19T09:09:03.252Z,10.24
2023-02-19T09:10:03.943Z,10.2
2023-02-19T09:11:05.193Z,10.13
2023-02-19T09:12:05.812Z,10.15
2023-02-19T09:13:06.340Z,10.2
2023-02-19T09:14:05.970Z,10.18
2023-02-19T09:15:06.703Z,10.12
2023-02-19T09:16:07.446Z,10.12
2023-02-19T09:17:07.125Z,10.1
2023-02-19T09:18:08.324Z,10.21
2023-02-19T09:19:08.539Z,10.15
2023-02-19T09:20:08.199Z,10.1
2023-02-19T09:21:10.167Z,10.2
2023-02-19T09:22:09.292Z,10.17
2023-02-19T09:23:10.212Z,10.17
2023-02-19T09:24:10.444Z,10.1
2023-02-19T09:25:11.465Z,10.09
2023-02-19T09:26:12.126Z,10.21
2023-02-19T09:27:12.804Z,10.07
2023-02-19T09:28:14.015Z,10.13
2023-02-19T09:29:13.925Z,10.15
2023-02-19T09:30:15.104Z,10.1
2023-02-19T09:31:17.022Z,10.09
2023-02-19T09:32:19.494Z,10.05
2023-02-19T09:33:17.137Z,10.06
2023-02-19T09:34:18.454Z,10.02
2023-02-19T09:35:19.153Z,10.09
2023-02-19T09:36:20.083Z,10
2023-02-19T09:37:21.299Z,10.06
2023-02-19T09:38:21.355Z,10.07
2023-02-19T09:39:22.000Z,10.06
2023-02-19T09:40:22.936Z,10.06
2023-02-19T09:41:23.444Z,10.13
2023-02-19T09:42:23.130Z,10.06
2023-02-19T09:43:24.037Z,10.12
2023-02-19T09:44:23.998Z,10.12
2023-02-19T09:45:24.435Z,10.1
2023-02-19T09:46:25.523Z,10.2
2023-02-19T09:47:26.213Z,10.28
2023-02-19T09:48:26.860Z,10.23
2023-02-19T09:49:26.763Z,10.25
2023-02-19T09:50:26.964Z,10.25
2023-02-19T09:51:28.191Z,10.31
2023-02-19T09:52:28.397Z,10.41
2023-02-19T09:53:28.325Z,10.49
2023-02-19T09:54:28.964Z,10.36
2023-02-19T09:55:29.417Z,10.38
2023-02-19T09:56:30.362Z,10.43
2023-02-19T09:57:30.431Z,10.43
2023-02-19T09:58:31.060Z,10.55
2023-02-19T09:59:31.706Z,10.51
2023-02-19T10:00:32.679Z,10.62
2023-02-19T10:01:33.026Z,10.62
2023-02-19T10:02:33.670Z,10.68
2023-02-19T10:03:34.601Z,10.61
2023-02-19T10:04:35.151Z,10.64
2023-02-19T10:05:35.720Z,10.58
2023-02-19T10:06:35.970Z,10.72
2023-02-19T10:07:36.193Z,10.69
2023-02-19T10:08:36.410Z,10.75
2023-02-19T10:09:36.903Z,10.79
2023-02-19T10:10:36.838Z,10.79
2023-02-19T10:11:37.334Z,10.72
2023-02-19T10:12:37.680Z,10.69
2023-02-19T10:13:38.179Z,10.77
2023-02-19T10:14:38.398Z,10.75
2023-02-19T10:15:39.373Z,10.72
2023-02-19T10:16:39.147Z,10.77
2023-02-19T10:17:40.368Z,10.87
2023-02-19T10:18:41.001Z,10.89
2023-02-19T10:19:41.497Z,10.9
2023-02-19T10:20:41.791Z,10.98
2023-02-19T10:21:42.287Z,10.84
2023-02-19T10:22:42.193Z,10.95
2023-02-19T10:23:43.408Z,10.95
2023-02-19T10:24:44.651Z,10.97
2023-02-19T10:25:44.635Z,10.89
2023-02-19T10:26:45.124Z,10.84
2023-02-19T10:27:46.051Z,10.98
2023-02-19T10:28:46.995Z,10.8
2023-02-19T10:29:47.485Z,10.92
2023-02-19T10:30:47.825Z,10.97
2023-02-19T10:31:48.571Z,11.07
2023-02-19T10:32:49.059Z,11
2023-02-19T10:33:48.974Z,11.08
2023-02-19T10:34:49.506Z,11.02
2023-02-19T10:35:50.520Z,11.07
2023-02-19T10:36:50.493Z,11.07
2023-02-19T10:37:51.733Z,11.1
2023-02-19T10:38:51.668Z,11.1
2023-02-19T10:39:52.332Z,11.15
2023-02-19T10:40:53.249Z,11.18
2023-02-19T10:41:53.926Z,11.1
2023-02-19T10:42:54.874Z,11.1
2023-02-19T10:43:55.401Z,11.12
2023-02-19T10:44:55.339Z,11.15
2023-02-19T10:45:56.640Z,11.18
2023-02-19T10:46:57.707Z,11.15
2023-02-19T10:47:58.358Z,11.15
2023-02-19T10:48:59.280Z,11.12
2023-02-19T10:50:04.455Z,11.18
2023-02-19T10:51:00.386Z,11.05
2023-02-19T10:52:01.139Z,11.15
2023-02-19T10:53:02.099Z,11.04
2023-02-19T10:54:03.321Z,11.1
2023-02-19T10:55:03.548Z,11.05
2023-02-19T10:56:04.555Z,11.12
2023-02-19T10:57:04.484Z,11.19
2023-02-19T10:58:04.451Z,11.22
2023-02-19T10:59:05.665Z,11.31
2023-02-19T11:00:06.354Z,11.18
2023-02-19T11:01:07.291Z,11.23
2023-02-19T11:02:07.535Z,11.3
2023-02-19T11:03:08.202Z,11.31
2023-02-19T11:04:09.471Z,11.37
2023-02-19T11:05:10.495Z,11.34
2023-02-19T11:06:11.570Z,11.4
2023-02-19T11:07:12.070Z,11.34
2023-02-19T11:08:12.729Z,11.34
2023-02-19T11:09:13.963Z,11.27
2023-02-19T11:10:13.962Z,11.31
2023-02-19T11:11:15.205Z,11.34
2023-02-19T11:12:15.520Z,11.3
2023-02-19T11:13:15.873Z,11.33
2023-02-19T11:14:16.517Z,11.3
2023-02-19T11:15:17.593Z,11.2
2023-02-19T11:16:18.765Z,11.15
2023-02-19T11:17:19.129Z,11.16
2023-02-19T11:18:20.086Z,11.12
2023-02-19T11:19:20.287Z,11.12
2023-02-19T11:20:20.970Z,11.07
2023-02-19T11:21:21.894Z,11.15
2023-02-19T11:22:22.118Z,11.15
2023-02-19T11:23:22.333Z,11.22
2023-02-19T11:24:22.246Z,11.33
2023-02-19T11:25:23.500Z,11.37
2023-02-19T11:26:24.584Z,11.37
2023-02-19T11:27:24.836Z,11.4
2023-02-19T11:28:24.778Z,11.37
2023-02-19T11:29:25.639Z,11.35
2023-02-19T11:30:26.991Z,11.41
2023-02-19T11:31:28.007Z,11.41
2023-02-19T11:32:28.802Z,11.4
2023-02-19T11:33:29.551Z,11.45
2023-02-19T11:34:29.774Z,11.44
2023-02-19T11:35:30.278Z,11.51
2023-02-19T11:36:31.417Z,11.41
2023-02-19T11:37:31.372Z,11.55
2023-02-19T11:38:31.726Z,11.43
2023-02-19T11:39:32.650Z,11.48
2023-02-19T11:40:32.857Z,11.41
2023-02-19T11:41:33.798Z,11.44
2023-02-19T11:42:35.385Z,11.45
2023-02-19T11:43:35.305Z,11.38
2023-02-19T11:44:36.030Z,11.41
2023-02-19T11:45:36.524Z,11.43
2023-02-19T11:46:36.752Z,11.37
2023-02-19T11:47:36.569Z,11.45
2023-02-19T11:48:37.505Z,11.55
2023-02-19T11:49:38.445Z,11.41
2023-02-19T11:50:38.982Z,11.49
2023-02-19T11:51:38.948Z,11.49
2023-02-19T11:52:39.305Z,11.51
2023-02-19T11:53:40.522Z,11.59
2023-02-19T11:54:40.759Z,11.65
2023-02-19T11:55:40.962Z,11.63
2023-02-19T11:56:41.676Z,11.73
2023-02-19T11:57:41.900Z,11.83
2023-02-19T11:58:43.117Z,11.81
2023-02-19T11:59:44.030Z,11.85
2023-02-19T12:00:44.666Z,11.85
2023-02-19T12:01:45.021Z,11.78
2023-02-19T12:02:45.056Z,11.74
2023-02-19T12:03:45.559Z,11.78
2023-02-19T12:04:45.826Z,11.8
2023-02-19T12:05:46.553Z,11.73
2023-02-19T12:06:47.010Z,11.6
2023-02-19T12:07:46.995Z,11.6
2023-02-19T12:08:47.962Z,11.63
2023-02-19T12:09:48.188Z,11.67
2023-02-19T12:10:48.403Z,11.55
2023-02-19T12:11:48.642Z,11.7
2023-02-19T12:12:49.842Z,11.71
2023-02-19T12:13:50.473Z,11.88
2023-02-19T12:14:51.406Z,11.91
2023-02-19T12:15:52.050Z,11.86
2023-02-19T12:16:52.806Z,11.95
2023-02-19T12:17:53.313Z,11.88
2023-02-19T12:18:53.948Z,11.85
2023-02-19T12:19:54.915Z,11.83
2023-02-19T12:20:55.426Z,11.78
2023-02-19T12:21:55.173Z,11.8
2023-02-19T12:22:56.091Z,11.85
2023-02-19T12:23:56.028Z,11.81
2023-02-19T12:24:57.022Z,11.88
2023-02-19T12:25:57.950Z,11.8
2023-02-19T12:26:58.170Z,11.81
2023-02-19T12:27:59.383Z,11.7
2023-02-19T12:28:59.598Z,11.77
2023-02-19T12:29:59.880Z,11.8
2023-02-19T12:31:00.715Z,11.83
2023-02-19T12:32:00.903Z,11.93
2023-02-19T12:33:01.526Z,12.08
2023-02-19T12:34:02.031Z,12.32
2023-02-19T12:35:01.961Z,12.37
2023-02-19T12:36:02.872Z,12.37
2023-02-19T12:37:03.685Z,12.39
2023-02-19T12:38:03.601Z,12.29
2023-02-19T12:39:04.820Z,12.39
2023-02-19T12:40:05.746Z,12.32
2023-02-19T12:41:05.948Z,12.33
2023-02-19T12:42:06.523Z,12.37
2023-02-19T12:43:06.728Z,12.29
2023-02-19T12:44:07.645Z,12.51
2023-02-19T12:45:08.855Z,12.54
2023-02-19T12:46:09.172Z,12.62
2023-02-19T12:47:08.814Z,12.66
2023-02-19T12:48:09.460Z,12.8
2023-02-19T12:49:10.679Z,12.84
2023-02-19T12:50:10.659Z,12.91
2023-02-19T12:51:11.866Z,13.05
2023-02-19T12:52:12.112Z,13.12
2023-02-19T12:53:12.043Z,13.28
2023-02-19T12:54:12.977Z,13.46
2023-02-19T12:55:13.349Z,13.37
2023-02-19T12:56:14.195Z,13.23
2023-02-19T12:57:14.541Z,13.37
2023-02-19T12:58:16.075Z,13.36
2023-02-19T12:59:16.428Z,13.28
2023-02-19T13:00:16.695Z,13.2
2023-02-19T13:01:17.676Z,13.33
2023-02-19T13:02:17.927Z,13.27
2023-02-19T13:03:18.242Z,13.06
2023-02-19T13:04:18.896Z,12.95
2023-02-19T13:05:19.697Z,12.87
2023-02-19T13:06:20.799Z,12.76
2023-02-19T13:07:20.809Z,12.86
2023-02-19T13:08:21.735Z,12.98
2023-02-19T13:09:22.395Z,13.06